Weather at Orlando International Airport

Public forecast

Using degrees Fahrenheit for public forecast. Weather courtesy of forecast.io.

Current aviation weather report (METAR) for Orlando International Airport

Retrieved 2020/10/27 03:53 UTC (1 hour ago):

KMCO 270353Z 08006KT 10SM SCT017 BKN085 25/23 A3008 RMK AO2 SLP183 T02500233

Aviation forecast (TAF) for Orlando International Airport

Retrieved 2020-10-27 00:48 UTC (4 hours ago):

TAF KMCO 262345Z 2700/2806 08008KT P6SM FEW030 SCT080 FM270600 03003KT P6SM FEW020 SCT070 FM271500 09008KT P6SM SCT030 SCT060 FM280000 07005KT P6SM FEW040